sensor_id;sensor_type;location;lat;lon;timestamp;P1;durP1;ratioP1;P2;durP2;ratioP2
15921;SDS011;8060;50.948;3.146;2022-11-06T06:58:11;10.97;;;2.90;;
15921;SDS011;8060;50.948;3.146;2022-11-06T07:00:43;7.20;;;3.40;;
15921;SDS011;8060;50.948;3.146;2022-11-06T07:03:11;15.97;;;4.97;;
15921;SDS011;8060;50.948;3.146;2022-11-06T07:05:40;13.57;;;4.63;;
15921;SDS011;8060;50.948;3.146;2022-11-06T07:08:08;13.57;;;6.47;;
15921;SDS011;8060;50.948;3.146;2022-11-06T07:10:36;21.87;;;10.03;;
15921;SDS011;8060;50.948;3.146;2022-11-06T07:13:05;21.43;;;7.40;;
15921;SDS011;8060;50.948;3.146;2022-11-06T07:15:34;22.97;;;8.90;;
15921;SDS011;8060;50.948;3.146;2022-11-06T07:18:02;10.73;;;6.00;;
15921;SDS011;8060;50.948;3.146;2022-11-06T07:23:50;12.97;;;5.00;;
15921;SDS011;8060;50.948;3.146;2022-11-06T07:26:18;14.63;;;5.93;;
15921;SDS011;8060;50.948;3.146;2022-11-06T07:28:47;15.57;;;4.33;;
15921;SDS011;8060;50.948;3.146;2022-11-06T07:31:15;11.57;;;4.83;;
15921;SDS011;8060;50.948;3.146;2022-11-06T07:33:43;13.03;;;3.97;;
15921;SDS011;8060;50.948;3.146;2022-11-06T07:36:11;11.63;;;4.20;;
15921;SDS011;8060;50.948;3.146;2022-11-06T07:38:40;16.20;;;3.83;;
15921;SDS011;8060;50.948;3.146;2022-11-06T07:41:11;11.73;;;4.10;;
15921;SDS011;8060;50.948;3.146;2022-11-06T07:43:41;9.47;;;3.93;;
15921;SDS011;8060;50.948;3.146;2022-11-06T07:46:10;8.63;;;4.23;;
15921;SDS011;8060;50.948;3.146;2022-11-06T07:48:39;7.70;;;3.30;;
15921;SDS011;8060;50.948;3.146;2022-11-06T07:51:08;10.10;;;3.20;;
15921;SDS011;8060;50.948;3.146;2022-11-06T07:53:37;13.23;;;3.43;;
15921;SDS011;8060;50.948;3.146;2022-11-06T07:56:06;9.00;;;3.43;;
15921;SDS011;8060;50.948;3.146;2022-11-06T07:58:36;7.97;;;3.10;;
15921;SDS011;8060;50.948;3.146;2022-11-06T08:01:05;8.97;;;3.00;;
15921;SDS011;8060;50.948;3.146;2022-11-06T08:03:33;12.33;;;3.70;;
15921;SDS011;8060;50.948;3.146;2022-11-06T08:06:02;10.50;;;2.77;;
15921;SDS011;8060;50.948;3.146;2022-11-06T08:08:31;13.03;;;3.73;;
15921;SDS011;8060;50.948;3.146;2022-11-06T08:11:02;12.53;;;3.37;;
15921;SDS011;8060;50.948;3.146;2022-11-06T08:13:31;11.10;;;3.47;;
15921;SDS011;8060;50.948;3.146;2022-11-06T08:16:05;9.27;;;3.20;;
15921;SDS011;8060;50.948;3.146;2022-11-06T08:18:35;13.70;;;3.73;;
15921;SDS011;8060;50.948;3.146;2022-11-06T08:21:04;10.70;;;3.47;;
15921;SDS011;8060;50.948;3.146;2022-11-06T08:23:33;10.73;;;3.57;;
15921;SDS011;8060;50.948;3.146;2022-11-06T08:26:02;9.53;;;3.80;;
15921;SDS011;8060;50.948;3.146;2022-11-06T08:28:33;13.67;;;4.60;;
15921;SDS011;8060;50.948;3.146;2022-11-06T08:31:02;14.13;;;3.60;;
15921;SDS011;8060;50.948;3.146;2022-11-06T08:33:32;12.03;;;3.67;;
15921;SDS011;8060;50.948;3.146;2022-11-06T08:36:02;17.60;;;4.20;;
15921;SDS011;8060;50.948;3.146;2022-11-06T08:38:31;14.83;;;5.07;;
15921;SDS011;8060;50.948;3.146;2022-11-06T08:41:02;14.73;;;5.83;;
15921;SDS011;8060;50.948;3.146;2022-11-06T08:43:31;12.80;;;5.10;;
15921;SDS011;8060;50.948;3.146;2022-11-06T08:45:59;19.43;;;6.63;;
15921;SDS011;8060;50.948;3.146;2022-11-06T08:59:24;18.27;;;5.83;;
15921;SDS011;8060;50.948;3.146;2022-11-06T09:01:52;15.93;;;7.27;;
15921;SDS011;8060;50.948;3.146;2022-11-06T09:04:21;11.83;;;5.13;;
15921;SDS011;8060;50.948;3.146;2022-11-06T09:06:49;17.60;;;6.63;;
15921;SDS011;8060;50.948;3.146;2022-11-06T09:09:17;21.67;;;9.50;;
15921;SDS011;8060;50.948;3.146;2022-11-06T09:21:51;14.93;;;4.57;;
15921;SDS011;8060;50.948;3.146;2022-11-06T09:27:19;14.57;;;3.93;;
15921;SDS011;8060;50.948;3.146;2022-11-06T09:29:47;13.70;;;3.67;;
15921;SDS011;8060;50.948;3.146;2022-11-06T09:32:15;14.93;;;4.20;;
15921;SDS011;8060;50.948;3.146;2022-11-06T09:34:43;15.47;;;3.73;;
15921;SDS011;8060;50.948;3.146;2022-11-06T09:37:11;12.93;;;3.97;;
15921;SDS011;8060;50.948;3.146;2022-11-06T09:39:40;15.03;;;4.57;;
15921;SDS011;8060;50.948;3.146;2022-11-06T09:42:11;14.53;;;4.60;;
15921;SDS011;8060;50.948;3.146;2022-11-06T09:44:50;13.03;;;4.20;;
15921;SDS011;8060;50.948;3.146;2022-11-06T09:47:27;13.87;;;4.93;;
15921;SDS011;8060;50.948;3.146;2022-11-06T09:49:59;11.37;;;4.70;;
15921;SDS011;8060;50.948;3.146;2022-11-06T09:52:30;9.83;;;3.33;;
15921;SDS011;8060;50.948;3.146;2022-11-06T09:57:28;15.80;;;3.77;;
15921;SDS011;8060;50.948;3.146;2022-11-06T10:13:25;9.30;;;3.87;;
15921;SDS011;8060;50.948;3.146;2022-11-06T10:16:03;10.93;;;4.20;;
15921;SDS011;8060;50.948;3.146;2022-11-06T10:18:40;12.20;;;4.07;;
15921;SDS011;8060;50.948;3.146;2022-11-06T10:21:21;10.40;;;4.50;;
15921;SDS011;8060;50.948;3.146;2022-11-06T10:23:51;16.43;;;5.27;;
15921;SDS011;8060;50.948;3.146;2022-11-06T10:26:25;14.40;;;4.70;;
15921;SDS011;8060;50.948;3.146;2022-11-06T10:32:29;12.60;;;4.03;;
15921;SDS011;8060;50.948;3.146;2022-11-06T10:35:25;11.67;;;3.97;;
15921;SDS011;8060;50.948;3.146;2022-11-06T10:37:58;9.20;;;3.47;;
15921;SDS011;8060;50.948;3.146;2022-11-06T10:40:31;8.13;;;3.53;;
15921;SDS011;8060;50.948;3.146;2022-11-06T10:43:05;12.70;;;4.17;;
15921;SDS011;8060;50.948;3.146;2022-11-06T10:45:43;12.40;;;3.60;;
15921;SDS011;8060;50.948;3.146;2022-11-06T10:48:19;11.13;;;4.37;;
15921;SDS011;8060;50.948;3.146;2022-11-06T10:51:00;11.63;;;3.77;;
15921;SDS011;8060;50.948;3.146;2022-11-06T10:53:40;12.20;;;3.53;;
15921;SDS011;8060;50.948;3.146;2022-11-06T10:56:31;14.67;;;3.50;;
15921;SDS011;8060;50.948;3.146;2022-11-06T10:59:14;11.63;;;3.13;;
15921;SDS011;8060;50.948;3.146;2022-11-06T11:01:44;11.10;;;3.57;;
15921;SDS011;8060;50.948;3.146;2022-11-06T11:04:12;9.40;;;2.90;;
15921;SDS011;8060;50.948;3.146;2022-11-06T11:06:40;13.20;;;3.13;;
15921;SDS011;8060;50.948;3.146;2022-11-06T11:09:25;12.17;;;3.30;;
15921;SDS011;8060;50.948;3.146;2022-11-06T11:11:56;10.57;;;3.63;;
15921;SDS011;8060;50.948;3.146;2022-11-06T11:14:25;9.90;;;3.30;;
15921;SDS011;8060;50.948;3.146;2022-11-06T11:16:57;10.37;;;3.50;;
15921;SDS011;8060;50.948;3.146;2022-11-06T11:19:32;12.03;;;3.10;;
15921;SDS011;8060;50.948;3.146;2022-11-06T11:22:02;10.50;;;3.57;;
15921;SDS011;8060;50.948;3.146;2022-11-06T11:24:31;11.83;;;3.10;;
15921;SDS011;8060;50.948;3.146;2022-11-06T11:27:01;12.03;;;3.00;;
15921;SDS011;8060;50.948;3.146;2022-11-06T11:29:32;10.20;;;3.10;;
15921;SDS011;8060;50.948;3.146;2022-11-06T11:32:11;10.17;;;3.40;;
15921;SDS011;8060;50.948;3.146;2022-11-06T11:34:42;10.47;;;3.30;;
15921;SDS011;8060;50.948;3.146;2022-11-06T11:37:22;13.90;;;3.20;;
15921;SDS011;8060;50.948;3.146;2022-11-06T11:39:51;13.83;;;2.87;;
15921;SDS011;8060;50.948;3.146;2022-11-06T11:42:23;10.90;;;3.40;;
15921;SDS011;8060;50.948;3.146;2022-11-06T11:45:10;12.07;;;3.13;;
15921;SDS011;8060;50.948;3.146;2022-11-06T11:47:42;12.27;;;3.60;;
15921;SDS011;8060;50.948;3.146;2022-11-06T11:50:26;9.50;;;3.80;;
15921;SDS011;8060;50.948;3.146;2022-11-06T11:53:00;9.20;;;3.97;;
15921;SDS011;8060;50.948;3.146;2022-11-06T11:55:37;11.97;;;4.30;;
15921;SDS011;8060;50.948;3.146;2022-11-06T11:58:15;9.33;;;4.20;;
15921;SDS011;8060;50.948;3.146;2022-11-06T12:00:52;7.07;;;3.40;;
15921;SDS011;8060;50.948;3.146;2022-11-06T12:03:24;11.23;;;4.10;;
15921;SDS011;8060;50.948;3.146;2022-11-06T12:06:04;13.50;;;4.13;;
15921;SDS011;8060;50.948;3.146;2022-11-06T12:08:35;10.40;;;4.10;;
15921;SDS011;8060;50.948;3.146;2022-11-06T12:11:05;14.00;;;6.27;;
15921;SDS011;8060;50.948;3.146;2022-11-06T12:13:34;13.47;;;5.03;;
15921;SDS011;8060;50.948;3.146;2022-11-06T12:16:02;12.20;;;5.17;;
15921;SDS011;8060;50.948;3.146;2022-11-06T12:18:36;14.80;;;4.00;;
15921;SDS011;8060;50.948;3.146;2022-11-06T12:21:07;9.67;;;3.73;;
15921;SDS011;8060;50.948;3.146;2022-11-06T12:23:41;18.23;;;6.20;;
15921;SDS011;8060;50.948;3.146;2022-11-06T12:26:17;13.37;;;4.00;;
15921;SDS011;8060;50.948;3.146;2022-11-06T12:28:54;11.73;;;4.27;;
15921;SDS011;8060;50.948;3.146;2022-11-06T12:31:31;9.80;;;4.03;;
15921;SDS011;8060;50.948;3.146;2022-11-06T12:34:06;19.00;;;7.33;;
15921;SDS011;8060;50.948;3.146;2022-11-06T12:36:44;10.67;;;5.10;;
15921;SDS011;8060;50.948;3.146;2022-11-06T12:39:21;13.33;;;6.07;;
15921;SDS011;8060;50.948;3.146;2022-11-06T12:41:53;9.80;;;5.60;;
15921;SDS011;8060;50.948;3.146;2022-11-06T12:44:22;7.93;;;4.40;;
15921;SDS011;8060;50.948;3.146;2022-11-06T12:46:52;10.37;;;4.93;;
15921;SDS011;8060;50.948;3.146;2022-11-06T12:55:50;10.50;;;4.13;;
15921;SDS011;8060;50.948;3.146;2022-11-06T12:58:30;9.83;;;4.57;;
15921;SDS011;8060;50.948;3.146;2022-11-06T13:01:11;11.70;;;4.70;;
15921;SDS011;8060;50.948;3.146;2022-11-06T13:06:48;16.50;;;6.57;;
15921;SDS011;8060;50.948;3.146;2022-11-06T13:09:34;12.37;;;5.77;;
15921;SDS011;8060;50.948;3.146;2022-11-06T13:12:10;10.97;;;5.70;;
15921;SDS011;8060;50.948;3.146;2022-11-06T13:14:47;10.27;;;5.83;;
15921;SDS011;8060;50.948;3.146;2022-11-06T13:17:31;11.03;;;6.67;;
15921;SDS011;8060;50.948;3.146;2022-11-06T13:20:07;15.97;;;7.10;;
15921;SDS011;8060;50.948;3.146;2022-11-06T13:22:41;11.17;;;5.23;;
15921;SDS011;8060;50.948;3.146;2022-11-06T13:25:19;9.17;;;5.53;;
15921;SDS011;8060;50.948;3.146;2022-11-06T13:27:54;11.50;;;5.60;;
15921;SDS011;8060;50.948;3.146;2022-11-06T13:33:01;10.33;;;5.20;;
15921;SDS011;8060;50.948;3.146;2022-11-06T13:35:33;12.73;;;5.60;;
15921;SDS011;8060;50.948;3.146;2022-11-06T13:44:12;7.30;;;5.23;;
15921;SDS011;8060;50.948;3.146;2022-11-06T13:46:46;12.53;;;6.30;;
15921;SDS011;8060;50.948;3.146;2022-11-06T13:49:20;15.03;;;6.37;;
15921;SDS011;8060;50.948;3.146;2022-11-06T13:51:55;12.57;;;5.60;;
15921;SDS011;8060;50.948;3.146;2022-11-06T14:00:30;8.83;;;5.10;;
15921;SDS011;8060;50.948;3.146;2022-11-06T14:03:20;9.73;;;4.53;;
15921;SDS011;8060;50.948;3.146;2022-11-06T14:06:02;10.00;;;6.10;;
15921;SDS011;8060;50.948;3.146;2022-11-06T14:12:35;12.63;;;6.43;;
15921;SDS011;8060;50.948;3.146;2022-11-06T14:15:14;8.97;;;5.00;;
15921;SDS011;8060;50.948;3.146;2022-11-06T14:17:52;9.03;;;5.30;;
15921;SDS011;8060;50.948;3.146;2022-11-06T14:20:26;6.63;;;4.10;;
15921;SDS011;8060;50.948;3.146;2022-11-06T14:25:59;9.23;;;3.80;;
15921;SDS011;8060;50.948;3.146;2022-11-06T14:28:31;6.53;;;3.50;;
15921;SDS011;8060;50.948;3.146;2022-11-06T15:23:11;7.83;;;4.20;;
15921;SDS011;8060;50.948;3.146;2022-11-06T15:25:56;9.33;;;4.47;;
15921;SDS011;8060;50.948;3.146;2022-11-06T15:31:20;12.97;;;6.30;;
15921;SDS011;8060;50.948;3.146;2022-11-06T15:33:50;8.30;;;4.23;;
15921;SDS011;8060;50.948;3.146;2022-11-06T15:36:25;8.03;;;4.37;;
15921;SDS011;8060;50.948;3.146;2022-11-06T15:38:57;5.10;;;3.90;;
